Time;durP1;ratioP1;P1;durP2;ratioP2;P2;SDS_P1;SDS_P2;PMS_P1;PMS_P2;Temp;Humidity;BMP_temperature;BMP_pressure;BME280_temperature;BME280_humidity;BME280_pressure;Samples;Min_cycle;Max_cycle;Signal;HPM_P1;HPM_P2
2024/01/07 00:00:25;;;;;;;9.50;4.93;;;;;;;;;;5073780;28;20195;-84
2024/01/07 00:03:13;;;;;;;7.07;4.70;;;;;;;;;;5072877;28;20717;-84
2024/01/07 00:05:40;;;;;;;9.20;5.13;;;;;;;;;;5073758;28;20228;-83
2024/01/07 00:08:07;;;;;;;7.83;4.93;;;;;;;;;;5073654;28;20524;-84
2024/01/07 00:10:34;;;;;;;11.40;4.80;;;;;;;;;;5073811;28;20197;-84
2024/01/07 00:13:01;;;;;;;9.47;4.73;;;;;;;;;;5073833;28;20195;-84
2024/01/07 00:15:29;;;;;;;7.53;4.83;;;;;;;;;;5073679;28;20218;-84
2024/01/07 00:17:56;;;;;;;8.37;4.80;;;;;;;;;;5072503;28;20324;-84
2024/01/07 00:20:23;;;;;;;10.23;4.90;;;;;;;;;;5073172;28;20195;-89
2024/01/07 00:22:50;;;;;;;9.90;4.97;;;;;;;;;;5073302;28;20269;-91
2024/01/07 00:25:18;;;;;;;10.73;5.23;;;;;;;;;;5073424;28;20230;-92
2024/01/07 00:27:45;;;;;;;12.20;5.47;;;;;;;;;;5074022;28;20215;-91
2024/01/07 00:30:13;;;;;;;8.10;5.13;;;;;;;;;;5053998;28;20196;-89
2024/01/07 00:32:40;;;;;;;15.60;5.83;;;;;;;;;;5087598;28;20191;-90
2024/01/07 00:35:08;;;;;;;10.87;5.03;;;;;;;;;;5075258;28;20227;-91
2024/01/07 00:37:35;;;;;;;9.50;5.03;;;;;;;;;;5057011;28;20274;-90
2024/01/07 00:40:02;;;;;;;10.33;5.33;;;;;;;;;;5040630;28;20196;-90
2024/01/07 00:42:30;;;;;;;9.33;4.93;;;;;;;;;;5056979;28;20598;-90
2024/01/07 00:44:57;;;;;;;10.87;5.33;;;;;;;;;;5040050;28;20647;-90
2024/01/07 00:47:24;;;;;;;9.43;5.33;;;;;;;;;;5056428;28;20203;-90
2024/01/07 00:49:52;;;;;;;10.73;5.07;;;;;;;;;;5056357;28;20644;-89
2024/01/07 00:52:19;;;;;;;10.37;5.30;;;;;;;;;;5075550;28;20199;-87
2024/01/07 00:54:46;;;;;;;12.07;5.57;;;;;;;;;;5077599;28;20203;-88
2024/01/07 00:57:13;;;;;;;6.73;3.70;;;;;;;;;;5078013;28;20214;-89
2024/01/07 00:59:41;;;;;;;13.00;5.23;;;;;;;;;;5077597;28;20196;-89
2024/01/07 01:02:08;;;;;;;10.03;4.33;;;;;;;;;;5060671;28;20670;-89
2024/01/07 01:04:38;;;;;;;9.83;4.87;;;;;;;;;;5059889;28;20199;-90
2024/01/07 01:07:07;;;;;;;13.87;5.63;;;;;;;;;;5060379;28;20202;-89
2024/01/07 01:09:35;;;;;;;7.77;4.60;;;;;;;;;;5076779;28;20203;-90
2024/01/07 01:12:02;;;;;;;11.43;5.20;;;;;;;;;;5060159;28;20682;-90
2024/01/07 01:14:30;;;;;;;8.00;4.80;;;;;;;;;;5059983;28;20191;-88
2024/01/07 01:16:57;;;;;;;11.63;5.00;;;;;;;;;;5059395;28;20727;-87
2024/01/07 01:19:24;;;;;;;9.20;5.53;;;;;;;;;;5059506;28;20652;-88
2024/01/07 01:21:51;;;;;;;12.23;6.07;;;;;;;;;;5059469;28;20196;-87
2024/01/07 01:24:19;;;;;;;12.43;6.43;;;;;;;;;;5077134;28;20266;-88
2024/01/07 01:26:46;;;;;;;11.57;5.13;;;;;;;;;;5077097;28;20196;-89
2024/01/07 01:29:13;;;;;;;12.30;5.40;;;;;;;;;;5043341;28;20211;-89
2024/01/07 01:31:40;;;;;;;9.97;5.30;;;;;;;;;;5059500;28;20210;-90
2024/01/07 01:34:08;;;;;;;11.13;5.80;;;;;;;;;;5059720;28;20219;-89
2024/01/07 01:36:35;;;;;;;9.40;5.60;;;;;;;;;;5076150;28;20218;-89
2024/01/07 01:39:03;;;;;;;10.37;5.93;;;;;;;;;;5042986;28;20206;-90
2024/01/07 01:41:30;;;;;;;10.87;5.50;;;;;;;;;;5059544;28;20195;-90
2024/01/07 01:44:01;;;;;;;9.47;5.37;;;;;;;;;;5076110;28;20202;-90
2024/01/07 01:46:29;;;;;;;9.53;5.40;;;;;;;;;;5059496;28;20176;-89
2024/01/07 01:48:57;;;;;;;11.93;5.57;;;;;;;;;;5059174;28;20650;-90
2024/01/07 01:51:24;;;;;;;11.23;5.70;;;;;;;;;;5059473;28;20195;-89
2024/01/07 01:53:51;;;;;;;11.73;6.03;;;;;;;;;;5076126;28;20199;-90
2024/01/07 01:56:20;;;;;;;13.83;6.10;;;;;;;;;;5059757;28;20625;-90
2024/01/07 01:58:48;;;;;;;10.57;5.00;;;;;;;;;;5059631;28;20246;-89
2024/01/07 02:01:15;;;;;;;10.20;5.83;;;;;;;;;;5059261;28;20632;-90
2024/01/07 02:03:42;;;;;;;12.57;5.33;;;;;;;;;;5074505;28;20187;-90
2024/01/07 02:06:11;;;;;;;10.37;6.43;;;;;;;;;;5058904;28;20191;-89
2024/01/07 02:08:40;;;;;;;10.63;6.20;;;;;;;;;;5058823;28;20195;-90
2024/01/07 02:11:21;;;;;;;9.63;5.60;;;;;;;;;;5042598;28;20191;-86
2024/01/07 02:13:49;;;;;;;10.57;5.37;;;;;;;;;;5058770;28;20172;-86
2024/01/07 02:16:17;;;;;;;8.47;5.00;;;;;;;;;;5058489;28;20234;-87
2024/01/07 02:18:45;;;;;;;11.20;5.90;;;;;;;;;;5074923;28;20199;-87
2024/01/07 02:21:14;;;;;;;8.83;5.43;;;;;;;;;;5058499;28;20202;-86
2024/01/07 02:23:41;;;;;;;10.90;5.70;;;;;;;;;;5058531;28;20195;-86
2024/01/07 02:26:08;;;;;;;9.80;5.13;;;;;;;;;;5058747;28;20201;-86
2024/01/07 02:28:36;;;;;;;10.73;5.00;;;;;;;;;;5074699;28;20203;-87
2024/01/07 02:31:03;;;;;;;11.30;4.77;;;;;;;;;;5058600;28;20199;-86
2024/01/07 02:33:31;;;;;;;10.07;5.13;;;;;;;;;;5058269;28;20195;-86
2024/01/07 02:35:58;;;;;;;10.33;5.20;;;;;;;;;;5074708;28;20203;-86
2024/01/07 02:38:26;;;;;;;13.33;6.87;;;;;;;;;;5074479;28;20647;-82
2024/01/07 02:40:52;;;;;;;14.50;6.13;;;;;;;;;;5075258;28;20207;-80
2024/01/07 02:43:20;;;;;;;9.83;5.33;;;;;;;;;;5075326;28;20229;-82
2024/01/07 02:45:47;;;;;;;10.07;5.30;;;;;;;;;;5075127;28;20214;-82
2024/01/07 02:48:14;;;;;;;10.80;5.57;;;;;;;;;;5075071;28;20188;-80
2024/01/07 02:50:41;;;;;;;7.03;4.43;;;;;;;;;;5074586;28;20207;-89
2024/01/07 02:53:10;;;;;;;13.57;6.13;;;;;;;;;;5065668;28;20712;-89
2024/01/07 02:55:38;;;;;;;10.60;5.30;;;;;;;;;;5068017;28;20199;-88
2024/01/07 02:58:05;;;;;;;14.53;5.33;;;;;;;;;;5084176;28;20200;-88
2024/01/07 03:00:32;;;;;;;13.20;6.10;;;;;;;;;;5079863;28;20218;-89
2024/01/07 03:03:00;;;;;;;11.33;6.30;;;;;;;;;;5075742;28;20244;-90
2024/01/07 03:05:29;;;;;;;13.63;6.10;;;;;;;;;;5074554;28;20191;-88
2024/01/07 03:07:56;;;;;;;12.00;6.33;;;;;;;;;;5057963;28;20195;-90
2024/01/07 03:10:23;;;;;;;11.70;6.07;;;;;;;;;;5057890;28;20201;-90
2024/01/07 03:12:51;;;;;;;15.10;6.67;;;;;;;;;;5057765;28;20199;-91
2024/01/07 03:15:18;;;;;;;12.50;6.03;;;;;;;;;;5057497;28;20207;-91
2024/01/07 03:17:45;;;;;;;10.17;5.40;;;;;;;;;;5041381;28;20219;-92
2024/01/07 03:20:13;;;;;;;15.43;7.37;;;;;;;;;;5057629;28;20253;-91
2024/01/07 03:22:40;;;;;;;14.03;6.90;;;;;;;;;;5073976;28;20240;-90
2024/01/07 03:25:08;;;;;;;14.23;6.63;;;;;;;;;;5075158;28;20582;-89
2024/01/07 03:27:35;;;;;;;16.17;7.10;;;;;;;;;;5058073;28;20191;-90
2024/01/07 03:30:03;;;;;;;15.23;6.07;;;;;;;;;;5057134;28;20199;-89
2024/01/07 03:32:30;;;;;;;13.23;6.47;;;;;;;;;;5073489;28;20196;-90
2024/01/07 03:34:58;;;;;;;14.57;7.00;;;;;;;;;;5073166;28;20261;-89
2024/01/07 03:37:25;;;;;;;13.37;7.07;;;;;;;;;;5073709;28;20219;-90
2024/01/07 03:39:52;;;;;;;12.37;6.23;;;;;;;;;;5057188;28;20196;-89
2024/01/07 03:42:20;;;;;;;15.77;7.37;;;;;;;;;;5074963;28;20195;-89
2024/01/07 03:44:47;;;;;;;13.87;7.70;;;;;;;;;;5074814;28;20644;-89
2024/01/07 03:47:14;;;;;;;15.33;6.63;;;;;;;;;;5074530;28;20697;-90
2024/01/07 03:49:41;;;;;;;15.60;7.67;;;;;;;;;;5073244;28;20191;-90
2024/01/07 03:52:09;;;;;;;15.13;7.10;;;;;;;;;;5057104;28;20253;-90
2024/01/07 03:54:36;;;;;;;13.23;7.40;;;;;;;;;;5056657;28;20249;-90
2024/01/07 03:57:04;;;;;;;12.53;7.20;;;;;;;;;;5040535;28;20676;-89
2024/01/07 03:59:31;;;;;;;12.83;6.87;;;;;;;;;;5073198;28;20198;-90
2024/01/07 04:01:58;;;;;;;12.70;6.67;;;;;;;;;;5072976;28;20199;-90
2024/01/07 04:04:25;;;;;;;19.13;7.60;;;;;;;;;;5072899;28;20252;-90
2024/01/07 04:06:53;;;;;;;13.67;6.87;;;;;;;;;;5056513;28;20198;-89
2024/01/07 04:09:20;;;;;;;16.27;7.77;;;;;;;;;;5073011;28;20278;-88
2024/01/07 04:11:48;;;;;;;16.90;8.03;;;;;;;;;;5074040;28;20203;-88
2024/01/07 04:14:16;;;;;;;12.97;6.97;;;;;;;;;;5072820;28;20277;-88
2024/01/07 04:16:43;;;;;;;16.67;7.53;;;;;;;;;;5074190;28;20207;-88
2024/01/07 04:19:10;;;;;;;15.13;7.50;;;;;;;;;;5072701;28;20195;-89
2024/01/07 04:21:38;;;;;;;13.67;7.03;;;;;;;;;;5072445;28;20195;-89
2024/01/07 04:24:05;;;;;;;15.50;7.17;;;;;;;;;;5072962;28;20706;-89
2024/01/07 04:26:32;;;;;;;12.90;6.50;;;;;;;;;;5072414;28;20557;-83
2024/01/07 04:28:59;;;;;;;16.70;8.77;;;;;;;;;;5072950;28;20199;-89
2024/01/07 04:31:27;;;;;;;17.07;8.43;;;;;;;;;;5074117;28;20199;-91
2024/01/07 04:33:54;;;;;;;17.63;8.53;;;;;;;;;;5055987;28;20676;-87
2024/01/07 04:36:21;;;;;;;13.53;7.23;;;;;;;;;;5072678;28;20188;-92
2024/01/07 04:38:49;;;;;;;11.53;6.90;;;;;;;;;;5056289;28;20202;-91
2024/01/07 04:41:16;;;;;;;12.00;6.73;;;;;;;;;;5056636;28;20202;-91
2024/01/07 04:43:43;;;;;;;14.23;6.70;;;;;;;;;;5039708;28;20195;-88
2024/01/07 04:46:11;;;;;;;19.07;7.90;;;;;;;;;;5072694;28;20654;-86
2024/01/07 04:48:38;;;;;;;12.13;7.30;;;;;;;;;;5055862;28;20987;-88
2024/01/07 04:51:07;;;;;;;16.40;8.37;;;;;;;;;;5073742;28;20196;-86
2024/01/07 04:53:36;;;;;;;11.67;7.07;;;;;;;;;;5072223;28;20195;-88
2024/01/07 04:56:03;;;;;;;16.37;8.60;;;;;;;;;;5072728;28;20206;-88
2024/01/07 04:58:30;;;;;;;14.23;7.73;;;;;;;;;;5072088;28;20294;-88
2024/01/07 05:00:58;;;;;;;14.40;8.47;;;;;;;;;;5072168;28;20221;-88
2024/01/07 05:03:25;;;;;;;11.03;6.60;;;;;;;;;;5056286;28;20191;-88
2024/01/07 05:05:53;;;;;;;15.43;7.73;;;;;;;;;;5075272;28;20254;-91
2024/01/07 05:08:20;;;;;;;15.47;8.73;;;;;;;;;;5079723;28;20253;-91
2024/01/07 05:10:51;;;;;;;13.53;7.37;;;;;;;;;;5074000;28;20258;-92
2024/01/07 05:13:18;;;;;;;13.57;7.20;;;;;;;;;;5039613;28;20196;-91
2024/01/07 05:15:53;;;;;;;15.10;7.73;;;;;;;;;;5056458;28;20195;-90
2024/01/07 05:18:24;;;;;;;11.40;6.80;;;;;;;;;;5057303;28;20204;-90
2024/01/07 05:20:52;;;;;;;15.83;7.50;;;;;;;;;;5073817;28;20249;-90
2024/01/07 05:23:19;;;;;;;12.53;7.07;;;;;;;;;;5074184;28;20206;-87
2024/01/07 05:25:46;;;;;;;14.03;6.90;;;;;;;;;;5072946;28;20219;-89
2024/01/07 05:28:14;;;;;;;17.80;8.20;;;;;;;;;;5072578;28;20195;-89
2024/01/07 05:30:44;;;;;;;14.73;6.77;;;;;;;;;;5072802;28;20199;-90
2024/01/07 05:33:11;;;;;;;14.73;6.17;;;;;;;;;;5055602;28;20246;-87
2024/01/07 05:35:38;;;;;;;15.53;7.37;;;;;;;;;;5039391;28;20688;-87
2024/01/07 05:38:05;;;;;;;15.47;7.43;;;;;;;;;;5074418;28;20211;-90
2024/01/07 05:40:33;;;;;;;12.50;6.57;;;;;;;;;;5059163;28;20203;-90
2024/01/07 05:43:00;;;;;;;14.80;8.10;;;;;;;;;;5076025;28;20201;-90
2024/01/07 05:45:27;;;;;;;18.07;8.67;;;;;;;;;;5075385;28;20200;-90
2024/01/07 05:47:55;;;;;;;14.20;7.03;;;;;;;;;;5059620;28;20269;-88
2024/01/07 05:50:22;;;;;;;17.20;8.03;;;;;;;;;;5043670;28;20206;-87
2024/01/07 05:52:49;;;;;;;13.20;6.87;;;;;;;;;;5059332;28;20195;-87
2024/01/07 05:55:17;;;;;;;13.47;6.53;;;;;;;;;;5059191;28;20667;-90
2024/01/07 05:57:44;;;;;;;12.73;6.80;;;;;;;;;;5075457;28;20550;-88
2024/01/07 06:00:12;;;;;;;14.67;7.73;;;;;;;;;;5076553;28;20200;-88
2024/01/07 06:02:39;;;;;;;14.77;6.83;;;;;;;;;;5075150;28;20206;-85
2024/01/07 06:05:07;;;;;;;9.03;5.67;;;;;;;;;;5075020;28;20195;-86
2024/01/07 06:07:35;;;;;;;18.03;7.03;;;;;;;;;;5076129;28;20214;-85
2024/01/07 06:10:03;;;;;;;12.00;6.03;;;;;;;;;;5076182;28;20202;-85
2024/01/07 06:12:30;;;;;;;11.83;6.10;;;;;;;;;;5075138;28;20245;-85
2024/01/07 06:14:57;;;;;;;15.13;6.60;;;;;;;;;;5075392;28;20712;-86
2024/01/07 06:17:24;;;;;;;10.20;6.23;;;;;;;;;;5075197;28;20207;-86
2024/01/07 06:19:52;;;;;;;10.27;6.80;;;;;;;;;;5076245;28;20198;-86
2024/01/07 06:22:19;;;;;;;14.07;6.30;;;;;;;;;;5058409;28;20191;-87
2024/01/07 06:24:46;;;;;;;13.57;7.00;;;;;;;;;;5076182;28;20199;-87
2024/01/07 06:27:13;;;;;;;10.33;5.97;;;;;;;;;;5075173;28;20582;-87
2024/01/07 06:29:41;;;;;;;13.73;6.90;;;;;;;;;;5075926;28;20206;-87
2024/01/07 06:32:09;;;;;;;14.37;5.93;;;;;;;;;;5058329;28;20195;-87
2024/01/07 06:34:37;;;;;;;9.40;5.23;;;;;;;;;;5041640;28;20234;-87
2024/01/07 06:37:05;;;;;;;11.97;5.40;;;;;;;;;;5058168;28;20261;-87
2024/01/07 06:39:34;;;;;;;8.97;5.57;;;;;;;;;;5058195;28;20212;-88
2024/01/07 06:42:01;;;;;;;8.97;5.23;;;;;;;;;;5058828;28;20198;-89
2024/01/07 06:44:28;;;;;;;7.93;5.50;;;;;;;;;;5057913;28;20203;-86
2024/01/07 06:46:55;;;;;;;10.83;6.07;;;;;;;;;;5074683;28;20195;-84
2024/01/07 06:49:23;;;;;;;11.47;5.87;;;;;;;;;;5074423;28;20202;-83
2024/01/07 06:51:50;;;;;;;11.57;4.93;;;;;;;;;;5076248;28;20859;-84
2024/01/07 06:54:17;;;;;;;10.53;6.17;;;;;;;;;;5076114;28;20200;-82
2024/01/07 06:56:44;;;;;;;14.40;6.30;;;;;;;;;;5074609;28;20200;-83
2024/01/07 06:59:11;;;;;;;9.87;6.33;;;;;;;;;;5075279;28;20546;-83
2024/01/07 07:01:38;;;;;;;9.70;5.50;;;;;;;;;;5074174;28;20191;-84
2024/01/07 07:04:06;;;;;;;7.37;5.30;;;;;;;;;;5075301;28;20199;-87
2024/01/07 07:06:34;;;;;;;7.50;5.70;;;;;;;;;;5073675;28;20192;-87
2024/01/07 07:09:02;;;;;;;11.17;5.60;;;;;;;;;;5075219;28;20235;-87
2024/01/07 07:11:29;;;;;;;12.60;6.17;;;;;;;;;;5075882;28;20288;-88
2024/01/07 07:13:56;;;;;;;11.73;6.47;;;;;;;;;;5075556;28;20239;-88
2024/01/07 07:16:23;;;;;;;10.67;5.20;;;;;;;;;;5057023;28;20225;-88
2024/01/07 07:18:51;;;;;;;9.43;6.30;;;;;;;;;;5075403;28;20243;-88
2024/01/07 07:21:19;;;;;;;11.60;5.63;;;;;;;;;;5075566;28;20589;-88
2024/01/07 07:23:46;;;;;;;13.17;6.00;;;;;;;;;;5057600;28;20253;-88
2024/01/07 07:26:14;;;;;;;11.57;6.50;;;;;;;;;;5075936;28;20254;-87
2024/01/07 07:28:41;;;;;;;12.50;5.93;;;;;;;;;;5074381;28;20235;-86
2024/01/07 07:31:10;;;;;;;15.87;6.03;;;;;;;;;;5075527;28;20215;-85
2024/01/07 07:33:39;;;;;;;15.33;7.27;;;;;;;;;;5075005;28;20239;-87
2024/01/07 07:36:07;;;;;;;13.83;7.03;;;;;;;;;;5078552;28;20228;-87
2024/01/07 07:38:35;;;;;;;16.67;6.23;;;;;;;;;;5080010;28;20318;-86
2024/01/07 07:41:02;;;;;;;14.77;6.27;;;;;;;;;;5075278;28;20211;-86
2024/01/07 07:43:29;;;;;;;11.03;5.37;;;;;;;;;;5073552;28;20247;-84
2024/01/07 07:45:56;;;;;;;12.47;6.53;;;;;;;;;;5077143;28;20219;-86
2024/01/07 07:48:26;;;;;;;11.50;6.13;;;;;;;;;;5078137;28;20231;-87
2024/01/07 07:50:53;;;;;;;10.63;6.20;;;;;;;;;;5076004;28;20243;-88
2024/01/07 07:53:20;;;;;;;10.27;5.57;;;;;;;;;;5072751;28;20707;-86
2024/01/07 07:55:48;;;;;;;14.30;6.13;;;;;;;;;;5073908;28;20218;-87
2024/01/07 07:58:15;;;;;;;10.60;6.00;;;;;;;;;;5072914;28;20592;-86
2024/01/07 08:00:42;;;;;;;13.17;5.73;;;;;;;;;;5055148;28;20699;-87
2024/01/07 08:03:10;;;;;;;13.83;6.83;;;;;;;;;;5073930;28;20239;-86
2024/01/07 08:05:37;;;;;;;11.27;5.63;;;;;;;;;;5073849;28;20294;-86
2024/01/07 08:08:04;;;;;;;14.47;6.77;;;;;;;;;;5073242;28;20227;-87
2024/01/07 08:10:32;;;;;;;10.37;5.63;;;;;;;;;;5072679;28;20302;-86
2024/01/07 08:12:59;;;;;;;11.43;5.80;;;;;;;;;;5072757;28;20235;-87
2024/01/07 08:15:26;;;;;;;12.20;6.27;;;;;;;;;;5077551;28;20226;-87
2024/01/07 08:17:54;;;;;;;12.80;5.90;;;;;;;;;;5074800;28;20227;-85
2024/01/07 08:20:21;;;;;;;15.53;7.17;;;;;;;;;;5076314;28;20219;-85
2024/01/07 08:22:48;;;;;;;12.63;6.93;;;;;;;;;;5068602;28;20227;-84
2024/01/07 08:25:15;;;;;;;13.53;6.67;;;;;;;;;;5073547;28;20223;-83
2024/01/07 08:27:43;;;;;;;12.33;6.30;;;;;;;;;;5072969;28;20749;-85
2024/01/07 08:30:13;;;;;;;14.93;6.40;;;;;;;;;;5072512;28;20227;-85
2024/01/07 08:32:41;;;;;;;14.17;6.37;;;;;;;;;;5072516;28;20828;-85
2024/01/07 08:35:08;;;;;;;10.70;5.93;;;;;;;;;;5073536;28;20239;-85
2024/01/07 08:37:36;;;;;;;8.80;4.67;;;;;;;;;;5073441;28;20223;-85
2024/01/07 08:40:03;;;;;;;9.47;4.90;;;;;;;;;;5072541;28;20302;-85
2024/01/07 08:42:30;;;;;;;9.90;6.03;;;;;;;;;;5073840;28;20592;-84
2024/01/07 08:45:00;;;;;;;10.50;5.80;;;;;;;;;;5073456;28;20248;-85
2024/01/07 08:47:28;;;;;;;10.30;5.83;;;;;;;;;;5076777;28;20218;-85
2024/01/07 08:49:55;;;;;;;9.03;5.87;;;;;;;;;;5074748;28;20321;-82
2024/01/07 08:52:23;;;;;;;12.33;6.00;;;;;;;;;;5073237;28;20235;-86
2024/01/07 08:54:51;;;;;;;10.77;5.50;;;;;;;;;;5071831;28;20269;-84
2024/01/07 08:57:18;;;;;;;11.43;5.83;;;;;;;;;;5073088;28;20223;-84
2024/01/07 08:59:45;;;;;;;10.53;6.03;;;;;;;;;;5073008;28;20239;-87
2024/01/07 09:02:13;;;;;;;11.40;5.97;;;;;;;;;;5073671;28;20582;-87
2024/01/07 09:04:40;;;;;;;12.30;6.60;;;;;;;;;;5073555;28;20317;-85
2024/01/07 09:07:08;;;;;;;13.37;6.97;;;;;;;;;;5072430;28;20227;-88
2024/01/07 09:09:35;;;;;;;9.33;4.90;;;;;;;;;;5073828;28;20239;-85
2024/01/07 09:12:03;;;;;;;8.57;5.47;;;;;;;;;;5073120;28;20215;-86
2024/01/07 09:14:30;;;;;;;6.17;4.57;;;;;;;;;;5076335;28;20245;-86
2024/01/07 09:16:58;;;;;;;8.57;5.40;;;;;;;;;;5076270;28;20245;-87
2024/01/07 09:19:25;;;;;;;9.03;4.60;;;;;;;;;;5059795;28;20238;-88
2024/01/07 09:21:52;;;;;;;11.80;6.30;;;;;;;;;;5059885;28;20207;-90
2024/01/07 09:24:19;;;;;;;7.73;4.97;;;;;;;;;;5077517;28;20231;-88
2024/01/07 09:26:47;;;;;;;7.13;4.47;;;;;;;;;;5076744;28;20603;-87
2024/01/07 09:29:14;;;;;;;8.97;4.93;;;;;;;;;;5059054;28;20281;-87
2024/01/07 09:31:41;;;;;;;7.13;5.07;;;;;;;;;;5075529;28;20219;-88
2024/01/07 09:34:09;;;;;;;7.57;4.70;;;;;;;;;;5058970;28;20231;-87
2024/01/07 09:36:36;;;;;;;14.27;5.03;;;;;;;;;;5076739;28;20604;-87
2024/01/07 09:39:05;;;;;;;9.50;4.87;;;;;;;;;;5076900;28;20273;-88
2024/01/07 09:41:33;;;;;;;8.70;5.10;;;;;;;;;;5043270;28;20219;-87
2024/01/07 09:44:01;;;;;;;10.83;5.93;;;;;;;;;;5075683;28;20695;-87
2024/01/07 09:46:30;;;;;;;12.07;5.07;;;;;;;;;;5059207;28;20226;-87
2024/01/07 09:48:57;;;;;;;13.53;5.37;;;;;;;;;;5075586;28;20573;-87
2024/01/07 09:51:28;;;;;;;9.27;5.87;;;;;;;;;;5075387;28;20218;-89
2024/01/07 09:53:57;;;;;;;11.50;6.00;;;;;;;;;;5077582;28;20264;-87
2024/01/07 09:56:35;;;;;;;11.97;5.17;;;;;;;;;;5060033;28;20219;-88
2024/01/07 09:59:02;;;;;;;10.80;5.77;;;;;;;;;;5077592;28;20272;-86
2024/01/07 10:01:30;;;;;;;10.30;6.00;;;;;;;;;;5078117;28;20230;-80
2024/01/07 10:03:57;;;;;;;10.03;5.50;;;;;;;;;;5075126;28;20672;-86
2024/01/07 10:06:25;;;;;;;10.57;5.53;;;;;;;;;;5057525;28;20227;-85
2024/01/07 10:08:52;;;;;;;15.03;6.90;;;;;;;;;;5075117;28;20227;-82
2024/01/07 10:11:21;;;;;;;10.47;5.60;;;;;;;;;;5077126;28;20254;-80
2024/01/07 10:13:48;;;;;;;6.40;4.37;;;;;;;;;;5078126;28;20223;-84
2024/01/07 10:16:15;;;;;;;13.63;5.83;;;;;;;;;;5076257;28;20243;-85
2024/01/07 10:18:42;;;;;;;12.40;5.67;;;;;;;;;;5075129;28;20227;-84
2024/01/07 10:21:10;;;;;;;11.30;6.27;;;;;;;;;;5075208;28;20235;-84
2024/01/07 10:23:37;;;;;;;14.00;5.97;;;;;;;;;;5073877;28;20219;-84
2024/01/07 10:26:05;;;;;;;8.13;4.70;;;;;;;;;;5055648;28;20228;-85
2024/01/07 10:28:45;;;;;;;9.60;5.40;;;;;;;;;;5054936;28;20298;-85
2024/01/07 10:31:13;;;;;;;8.27;4.90;;;;;;;;;;5055056;28;20239;-85
2024/01/07 10:33:41;;;;;;;9.40;5.40;;;;;;;;;;5053530;28;20307;-85
2024/01/07 10:36:09;;;;;;;10.00;5.93;;;;;;;;;;5067929;28;20235;-85
2024/01/07 10:38:36;;;;;;;16.97;6.60;;;;;;;;;;5054344;28;20232;-84
2024/01/07 10:41:09;;;;;;;8.17;5.53;;;;;;;;;;5057240;28;20232;-85
2024/01/07 10:43:36;;;;;;;10.93;5.33;;;;;;;;;;5056203;28;20251;-85
2024/01/07 10:46:04;;;;;;;10.40;5.97;;;;;;;;;;5053152;28;20232;-85
2024/01/07 10:48:35;;;;;;;11.53;6.67;;;;;;;;;;5054226;28;20228;-85
2024/01/07 10:51:03;;;;;;;10.00;5.33;;;;;;;;;;5052285;28;20235;-84
2024/01/07 10:53:36;;;;;;;8.17;5.03;;;;;;;;;;5053942;28;20311;-84
2024/01/07 10:56:05;;;;;;;10.07;5.33;;;;;;;;;;5053867;28;20251;-85
2024/01/07 10:58:34;;;;;;;13.70;6.83;;;;;;;;;;5053009;28;20232;-84
2024/01/07 11:01:04;;;;;;;12.70;6.50;;;;;;;;;;5073658;28;20684;-84
2024/01/07 11:03:55;;;;;;;12.67;5.90;;;;;;;;;;5074570;28;20273;-84
2024/01/07 11:06:38;;;;;;;8.27;4.77;;;;;;;;;;5060259;28;20223;-85
2024/01/07 11:09:20;;;;;;;6.70;5.00;;;;;;;;;;5075365;28;20219;-83
2024/01/07 11:11:47;;;;;;;5.43;3.80;;;;;;;;;;5072482;28;20715;-85
2024/01/07 11:14:33;;;;;;;7.87;4.33;;;;;;;;;;5071893;28;20306;-85
2024/01/07 11:17:02;;;;;;;7.73;5.27;;;;;;;;;;5074265;28;20215;-84
2024/01/07 11:19:29;;;;;;;7.17;4.77;;;;;;;;;;5072896;28;20707;-84
2024/01/07 11:22:35;;;;;;;9.50;5.13;;;;;;;;;;5070629;28;20231;-85
2024/01/07 11:25:03;;;;;;;12.43;5.73;;;;;;;;;;5009658;28;21130;-84
2024/01/07 11:27:33;;;;;;;8.43;5.23;;;;;;;;;;4993884;28;20213;-85
2024/01/07 11:30:07;;;;;;;17.23;4.73;;;;;;;;;;5010543;28;20232;-84
2024/01/07 11:32:35;;;;;;;5.47;4.27;;;;;;;;;;4989676;28;20232;-84
2024/01/07 11:35:04;;;;;;;7.57;3.87;;;;;;;;;;4990354;28;20242;-84
2024/01/07 11:37:31;;;;;;;8.07;4.13;;;;;;;;;;5007543;28;20237;-84
2024/01/07 11:39:58;;;;;;;11.27;5.00;;;;;;;;;;5005170;28;20240;-84
2024/01/07 11:42:26;;;;;;;8.70;4.80;;;;;;;;;;5008654;28;20229;-81
2024/01/07 11:44:54;;;;;;;11.37;6.17;;;;;;;;;;5012699;28;20225;-85
2024/01/07 11:47:23;;;;;;;11.67;5.83;;;;;;;;;;5013031;28;20229;-86
2024/01/07 11:49:50;;;;;;;8.57;4.50;;;;;;;;;;4995864;28;20240;-85
2024/01/07 11:52:18;;;;;;;9.97;5.30;;;;;;;;;;5011718;28;20225;-81
2024/01/07 11:54:49;;;;;;;13.53;5.93;;;;;;;;;;4998141;28;20256;-86
2024/01/07 11:57:17;;;;;;;10.43;5.93;;;;;;;;;;5073611;28;20242;-84
2024/01/07 11:59:44;;;;;;;8.73;5.27;;;;;;;;;;5072788;28;20237;-85
2024/01/07 12:02:11;;;;;;;8.63;4.93;;;;;;;;;;5078762;28;20227;-85
2024/01/07 12:04:39;;;;;;;10.03;4.97;;;;;;;;;;5075155;28;20564;-84
2024/01/07 12:07:06;;;;;;;6.03;4.40;;;;;;;;;;5073638;28;20293;-85
2024/01/07 12:09:34;;;;;;;6.97;3.87;;;;;;;;;;5072165;28;20289;-84
2024/01/07 12:12:03;;;;;;;7.83;4.47;;;;;;;;;;5072312;28;20238;-85
2024/01/07 12:14:31;;;;;;;11.63;5.43;;;;;;;;;;5071690;28;20216;-84
2024/01/07 12:16:59;;;;;;;7.90;4.70;;;;;;;;;;5073024;28;20234;-84
2024/01/07 12:19:26;;;;;;;8.37;4.87;;;;;;;;;;5072780;28;20313;-84
2024/01/07 12:22:03;;;;;;;9.50;5.20;;;;;;;;;;5073379;28;20234;-84
2024/01/07 12:24:30;;;;;;;9.47;5.13;;;;;;;;;;5084788;28;20217;-83
2024/01/07 12:27:04;;;;;;;9.63;4.70;;;;;;;;;;5079949;28;20247;-80
2024/01/07 12:29:31;;;;;;;8.00;5.47;;;;;;;;;;5072057;28;20219;-78
2024/01/07 12:31:59;;;;;;;7.57;4.13;;;;;;;;;;5052555;28;20223;-83
2024/01/07 12:34:27;;;;;;;11.20;5.90;;;;;;;;;;5057539;28;20231;-84
2024/01/07 12:36:55;;;;;;;10.57;5.13;;;;;;;;;;5075769;28;20227;-84
2024/01/07 12:39:22;;;;;;;7.47;5.00;;;;;;;;;;5075001;28;20601;-83
2024/01/07 12:41:54;;;;;;;9.93;5.50;;;;;;;;;;5074341;28;20250;-83
2024/01/07 12:44:21;;;;;;;14.67;4.80;;;;;;;;;;5072284;28;20223;-84
2024/01/07 12:46:51;;;;;;;13.40;5.77;;;;;;;;;;5072956;28;20219;-84
2024/01/07 12:49:18;;;;;;;11.20;5.37;;;;;;;;;;5072435;28;20246;-84
2024/01/07 12:51:46;;;;;;;10.93;5.50;;;;;;;;;;5071280;28;20580;-84
2024/01/07 12:54:13;;;;;;;9.53;5.67;;;;;;;;;;5072776;28;20233;-84
2024/01/07 12:56:40;;;;;;;8.87;5.47;;;;;;;;;;5071509;28;20277;-84
2024/01/07 12:59:07;;;;;;;9.60;5.43;;;;;;;;;;5071312;28;20231;-84
2024/01/07 13:01:36;;;;;;;7.33;5.40;;;;;;;;;;5072831;28;20231;-84
2024/01/07 13:04:03;;;;;;;11.80;5.73;;;;;;;;;;5073128;28;20229;-84
2024/01/07 13:06:30;;;;;;;10.07;5.23;;;;;;;;;;5072344;28;20219;-83
2024/01/07 13:08:58;;;;;;;10.07;5.40;;;;;;;;;;5073036;28;20266;-83
2024/01/07 13:11:28;;;;;;;10.13;4.93;;;;;;;;;;5072154;28;20246;-84
2024/01/07 13:13:58;;;;;;;8.43;4.97;;;;;;;;;;5072397;28;20235;-84
2024/01/07 13:16:27;;;;;;;8.80;4.70;;;;;;;;;;5072267;28;20223;-84
2024/01/07 13:18:55;;;;;;;9.23;5.67;;;;;;;;;;5071570;28;20251;-84
2024/01/07 13:21:22;;;;;;;10.47;5.10;;;;;;;;;;5070861;28;20215;-84
2024/01/07 13:23:49;;;;;;;8.80;5.00;;;;;;;;;;5070339;28;20231;-83
2024/01/07 13:26:16;;;;;;;13.23;5.80;;;;;;;;;;5071055;28;20706;-84
2024/01/07 13:28:43;;;;;;;10.87;5.80;;;;;;;;;;5071766;28;20258;-84
2024/01/07 13:31:14;;;;;;;10.10;5.33;;;;;;;;;;5071833;28;20219;-83
2024/01/07 13:33:41;;;;;;;9.97;5.50;;;;;;;;;;5071549;28;20621;-84
2024/01/07 13:36:10;;;;;;;12.17;6.43;;;;;;;;;;5033079;28;20955;-85
2024/01/07 13:38:41;;;;;;;14.43;6.10;;;;;;;;;;5000931;28;20241;-85
2024/01/07 13:41:10;;;;;;;13.37;6.33;;;;;;;;;;5035300;28;20227;-85
2024/01/07 13:43:40;;;;;;;12.03;6.80;;;;;;;;;;5033191;28;20256;-85
2024/01/07 13:46:08;;;;;;;12.77;6.93;;;;;;;;;;5032290;28;20220;-85
2024/01/07 13:48:38;;;;;;;16.23;7.57;;;;;;;;;;5032610;28;20237;-86
2024/01/07 13:51:05;;;;;;;12.80;6.60;;;;;;;;;;5033120;28;20214;-86
2024/01/07 13:53:32;;;;;;;17.53;6.83;;;;;;;;;;5012242;28;20238;-85
2024/01/07 13:56:00;;;;;;;17.17;6.73;;;;;;;;;;4996077;28;20632;-86
2024/01/07 13:58:27;;;;;;;12.83;6.47;;;;;;;;;;5013351;28;20713;-85
2024/01/07 14:00:54;;;;;;;15.90;6.90;;;;;;;;;;5019784;28;20233;-86
2024/01/07 14:03:21;;;;;;;11.03;5.90;;;;;;;;;;5020700;28;20251;-85
2024/01/07 14:05:49;;;;;;;20.53;8.43;;;;;;;;;;5037521;28;20232;-86
2024/01/07 14:08:16;;;;;;;18.40;7.03;;;;;;;;;;5035524;28;20232;-86
2024/01/07 14:10:43;;;;;;;15.73;7.67;;;;;;;;;;5035949;28;20232;-86
2024/01/07 14:13:10;;;;;;;16.10;7.30;;;;;;;;;;5018645;28;20713;-86
2024/01/07 14:15:38;;;;;;;13.20;6.63;;;;;;;;;;5034839;28;20271;-85
2024/01/07 14:18:05;;;;;;;16.20;6.93;;;;;;;;;;5036129;28;20237;-85
2024/01/07 14:20:32;;;;;;;14.77;7.13;;;;;;;;;;5034671;28;20228;-85
2024/01/07 14:22:59;;;;;;;11.30;5.37;;;;;;;;;;5035260;28;20232;-86
2024/01/07 14:25:26;;;;;;;16.77;7.97;;;;;;;;;;5026843;28;20227;-85
2024/01/07 14:27:54;;;;;;;16.33;6.63;;;;;;;;;;5019435;28;20219;-84
2024/01/07 14:30:22;;;;;;;17.43;7.07;;;;;;;;;;5015719;28;20244;-84
2024/01/07 14:32:50;;;;;;;16.30;7.33;;;;;;;;;;5015943;28;20220;-85
2024/01/07 14:35:18;;;;;;;10.83;6.20;;;;;;;;;;5042521;28;20243;-84
2024/01/07 14:37:45;;;;;;;12.33;6.37;;;;;;;;;;5039265;28;20676;-84